sensor_id;sensor_type;location;lat;lon;timestamp;P1;durP1;ratioP1;P2;durP2;ratioP2
8462;SDS011;4268;52.506;13.462;2022-11-14T00:00:07;45.40;;;38.27;;
8462;SDS011;4268;52.506;13.462;2022-11-14T00:02:35;41.90;;;37.30;;
8462;SDS011;4268;52.506;13.462;2022-11-14T00:05:01;46.00;;;38.20;;
8462;SDS011;4268;52.506;13.462;2022-11-14T00:07:30;42.20;;;36.87;;
8462;SDS011;4268;52.506;13.462;2022-11-14T00:09:56;43.70;;;37.70;;
8462;SDS011;4268;52.506;13.462;2022-11-14T00:12:22;45.10;;;37.77;;
8462;SDS011;4268;52.506;13.462;2022-11-14T00:14:47;46.60;;;38.60;;
8462;SDS011;4268;52.506;13.462;2022-11-14T00:17:13;43.13;;;37.53;;
8462;SDS011;4268;52.506;13.462;2022-11-14T00:19:38;47.03;;;39.00;;
8462;SDS011;4268;52.506;13.462;2022-11-14T00:22:04;45.00;;;37.47;;
8462;SDS011;4268;52.506;13.462;2022-11-14T00:24:29;44.97;;;36.57;;
8462;SDS011;4268;52.506;13.462;2022-11-14T00:26:55;45.13;;;37.50;;
8462;SDS011;4268;52.506;13.462;2022-11-14T00:29:20;46.93;;;38.33;;
8462;SDS011;4268;52.506;13.462;2022-11-14T00:31:46;44.57;;;38.43;;
8462;SDS011;4268;52.506;13.462;2022-11-14T00:34:11;45.47;;;39.40;;
8462;SDS011;4268;52.506;13.462;2022-11-14T00:36:37;44.33;;;37.83;;
8462;SDS011;4268;52.506;13.462;2022-11-14T00:39:02;44.37;;;37.37;;
8462;SDS011;4268;52.506;13.462;2022-11-14T00:41:28;45.90;;;37.87;;
8462;SDS011;4268;52.506;13.462;2022-11-14T00:43:54;45.43;;;36.70;;
8462;SDS011;4268;52.506;13.462;2022-11-14T00:46:19;49.77;;;40.63;;
8462;SDS011;4268;52.506;13.462;2022-11-14T00:48:45;45.90;;;38.67;;
8462;SDS011;4268;52.506;13.462;2022-11-14T00:51:10;50.90;;;39.63;;
8462;SDS011;4268;52.506;13.462;2022-11-14T00:53:36;48.50;;;38.83;;
8462;SDS011;4268;52.506;13.462;2022-11-14T00:56:02;49.33;;;39.70;;
8462;SDS011;4268;52.506;13.462;2022-11-14T00:58:27;50.83;;;42.03;;
8462;SDS011;4268;52.506;13.462;2022-11-14T01:00:53;49.73;;;40.90;;
8462;SDS011;4268;52.506;13.462;2022-11-14T01:03:18;47.40;;;41.00;;
8462;SDS011;4268;52.506;13.462;2022-11-14T01:05:45;48.73;;;41.27;;
8462;SDS011;4268;52.506;13.462;2022-11-14T01:08:13;50.43;;;42.07;;
8462;SDS011;4268;52.506;13.462;2022-11-14T01:10:40;51.07;;;43.30;;
8462;SDS011;4268;52.506;13.462;2022-11-14T01:13:07;53.10;;;43.83;;
8462;SDS011;4268;52.506;13.462;2022-11-14T01:15:33;53.40;;;44.70;;
8462;SDS011;4268;52.506;13.462;2022-11-14T01:18:03;53.20;;;44.43;;
8462;SDS011;4268;52.506;13.462;2022-11-14T01:20:28;54.60;;;43.37;;
8462;SDS011;4268;52.506;13.462;2022-11-14T01:22:54;58.13;;;44.33;;
8462;SDS011;4268;52.506;13.462;2022-11-14T01:25:26;56.47;;;44.43;;
8462;SDS011;4268;52.506;13.462;2022-11-14T01:27:51;58.80;;;44.47;;
8462;SDS011;4268;52.506;13.462;2022-11-14T01:30:17;55.53;;;42.53;;
8462;SDS011;4268;52.506;13.462;2022-11-14T01:32:42;55.37;;;42.23;;
8462;SDS011;4268;52.506;13.462;2022-11-14T01:35:08;59.80;;;43.20;;
8462;SDS011;4268;52.506;13.462;2022-11-14T01:37:33;53.97;;;42.97;;
8462;SDS011;4268;52.506;13.462;2022-11-14T01:39:59;55.17;;;42.00;;
8462;SDS011;4268;52.506;13.462;2022-11-14T01:42:24;55.73;;;42.10;;
8462;SDS011;4268;52.506;13.462;2022-11-14T01:44:50;58.80;;;44.20;;
8462;SDS011;4268;52.506;13.462;2022-11-14T01:47:21;59.63;;;44.57;;
8462;SDS011;4268;52.506;13.462;2022-11-14T01:49:51;56.00;;;43.30;;
8462;SDS011;4268;52.506;13.462;2022-11-14T01:52:21;58.97;;;43.23;;
8462;SDS011;4268;52.506;13.462;2022-11-14T01:54:53;55.90;;;42.97;;
8462;SDS011;4268;52.506;13.462;2022-11-14T01:57:31;58.47;;;43.60;;
8462;SDS011;4268;52.506;13.462;2022-11-14T02:00:05;58.13;;;42.97;;
8462;SDS011;4268;52.506;13.462;2022-11-14T02:02:33;64.03;;;44.73;;
8462;SDS011;4268;52.506;13.462;2022-11-14T02:05:05;55.37;;;43.20;;
8462;SDS011;4268;52.506;13.462;2022-11-14T02:07:33;55.03;;;42.70;;
8462;SDS011;4268;52.506;13.462;2022-11-14T02:10:04;55.37;;;42.80;;
8462;SDS011;4268;52.506;13.462;2022-11-14T02:12:32;57.47;;;41.97;;
8462;SDS011;4268;52.506;13.462;2022-11-14T02:14:58;56.23;;;42.37;;
8462;SDS011;4268;52.506;13.462;2022-11-14T02:17:24;61.53;;;45.10;;
8462;SDS011;4268;52.506;13.462;2022-11-14T02:19:54;62.60;;;44.33;;
8462;SDS011;4268;52.506;13.462;2022-11-14T02:22:24;60.40;;;43.57;;
8462;SDS011;4268;52.506;13.462;2022-11-14T02:24:50;58.10;;;43.13;;
8462;SDS011;4268;52.506;13.462;2022-11-14T02:27:15;60.83;;;43.50;;
8462;SDS011;4268;52.506;13.462;2022-11-14T02:29:41;57.67;;;43.20;;
8462;SDS011;4268;52.506;13.462;2022-11-14T02:32:07;62.67;;;44.20;;
8462;SDS011;4268;52.506;13.462;2022-11-14T02:34:32;57.27;;;42.50;;
8462;SDS011;4268;52.506;13.462;2022-11-14T02:36:58;55.63;;;41.77;;
8462;SDS011;4268;52.506;13.462;2022-11-14T02:39:23;52.00;;;40.90;;
8462;SDS011;4268;52.506;13.462;2022-11-14T02:41:50;55.53;;;42.77;;
8462;SDS011;4268;52.506;13.462;2022-11-14T02:44:16;54.23;;;40.37;;
8462;SDS011;4268;52.506;13.462;2022-11-14T02:46:42;54.47;;;40.90;;
8462;SDS011;4268;52.506;13.462;2022-11-14T02:49:07;56.53;;;40.67;;
8462;SDS011;4268;52.506;13.462;2022-11-14T02:51:33;55.33;;;41.23;;
8462;SDS011;4268;52.506;13.462;2022-11-14T02:53:58;54.10;;;41.57;;
8462;SDS011;4268;52.506;13.462;2022-11-14T02:56:24;55.20;;;41.67;;
8462;SDS011;4268;52.506;13.462;2022-11-14T02:58:49;57.40;;;41.17;;
8462;SDS011;4268;52.506;13.462;2022-11-14T03:01:15;59.43;;;41.30;;
8462;SDS011;4268;52.506;13.462;2022-11-14T03:03:40;60.93;;;43.33;;
8462;SDS011;4268;52.506;13.462;2022-11-14T03:06:06;57.47;;;42.10;;
8462;SDS011;4268;52.506;13.462;2022-11-14T03:08:31;51.13;;;40.07;;
8462;SDS011;4268;52.506;13.462;2022-11-14T03:11:02;55.70;;;41.53;;
8462;SDS011;4268;52.506;13.462;2022-11-14T03:13:28;53.87;;;40.13;;
8462;SDS011;4268;52.506;13.462;2022-11-14T03:15:54;56.37;;;40.47;;
8462;SDS011;4268;52.506;13.462;2022-11-14T03:18:20;57.43;;;41.57;;
8462;SDS011;4268;52.506;13.462;2022-11-14T03:20:46;56.67;;;41.10;;
8462;SDS011;4268;52.506;13.462;2022-11-14T03:23:11;53.43;;;40.57;;
8462;SDS011;4268;52.506;13.462;2022-11-14T03:25:37;55.17;;;40.33;;
8462;SDS011;4268;52.506;13.462;2022-11-14T03:28:02;54.13;;;40.47;;
8462;SDS011;4268;52.506;13.462;2022-11-14T03:30:28;51.87;;;39.83;;
8462;SDS011;4268;52.506;13.462;2022-11-14T03:32:54;59.23;;;41.43;;
8462;SDS011;4268;52.506;13.462;2022-11-14T03:35:21;54.23;;;40.07;;
8462;SDS011;4268;52.506;13.462;2022-11-14T03:37:46;57.67;;;40.80;;
8462;SDS011;4268;52.506;13.462;2022-11-14T03:40:12;54.57;;;40.30;;
8462;SDS011;4268;52.506;13.462;2022-11-14T03:42:37;52.53;;;39.07;;
8462;SDS011;4268;52.506;13.462;2022-11-14T03:45:03;62.77;;;41.17;;
8462;SDS011;4268;52.506;13.462;2022-11-14T03:47:29;53.03;;;38.63;;
8462;SDS011;4268;52.506;13.462;2022-11-14T03:49:54;53.07;;;39.27;;
8462;SDS011;4268;52.506;13.462;2022-11-14T03:52:20;54.63;;;39.77;;
8462;SDS011;4268;52.506;13.462;2022-11-14T03:54:45;52.50;;;39.30;;
8462;SDS011;4268;52.506;13.462;2022-11-14T03:57:11;50.90;;;37.70;;
8462;SDS011;4268;52.506;13.462;2022-11-14T03:59:36;55.33;;;38.80;;
8462;SDS011;4268;52.506;13.462;2022-11-14T04:02:02;50.67;;;38.93;;
8462;SDS011;4268;52.506;13.462;2022-11-14T04:04:27;55.40;;;40.27;;
8462;SDS011;4268;52.506;13.462;2022-11-14T04:06:53;58.73;;;41.00;;
8462;SDS011;4268;52.506;13.462;2022-11-14T04:09:18;63.83;;;41.97;;
8462;SDS011;4268;52.506;13.462;2022-11-14T04:11:44;57.50;;;40.20;;
8462;SDS011;4268;52.506;13.462;2022-11-14T04:14:09;57.53;;;39.93;;
8462;SDS011;4268;52.506;13.462;2022-11-14T04:16:34;60.73;;;41.77;;
8462;SDS011;4268;52.506;13.462;2022-11-14T04:19:00;55.90;;;40.07;;
8462;SDS011;4268;52.506;13.462;2022-11-14T04:21:25;60.80;;;42.63;;
8462;SDS011;4268;52.506;13.462;2022-11-14T04:23:51;58.70;;;41.60;;
8462;SDS011;4268;52.506;13.462;2022-11-14T04:26:17;60.63;;;42.97;;
8462;SDS011;4268;52.506;13.462;2022-11-14T04:28:42;58.67;;;41.83;;
8462;SDS011;4268;52.506;13.462;2022-11-14T04:31:08;70.67;;;47.47;;
8462;SDS011;4268;52.506;13.462;2022-11-14T04:33:33;63.17;;;41.13;;
8462;SDS011;4268;52.506;13.462;2022-11-14T04:35:58;66.73;;;43.23;;
8462;SDS011;4268;52.506;13.462;2022-11-14T04:38:24;65.47;;;43.90;;
8462;SDS011;4268;52.506;13.462;2022-11-14T04:40:50;61.27;;;42.70;;
8462;SDS011;4268;52.506;13.462;2022-11-14T04:43:16;65.87;;;43.27;;
8462;SDS011;4268;52.506;13.462;2022-11-14T04:45:43;65.23;;;42.53;;
8462;SDS011;4268;52.506;13.462;2022-11-14T04:48:08;61.87;;;43.17;;
8462;SDS011;4268;52.506;13.462;2022-11-14T04:50:34;60.23;;;42.00;;
8462;SDS011;4268;52.506;13.462;2022-11-14T04:52:59;59.70;;;41.33;;
8462;SDS011;4268;52.506;13.462;2022-11-14T04:55:25;64.80;;;43.73;;
8462;SDS011;4268;52.506;13.462;2022-11-14T04:57:54;61.83;;;42.50;;
8462;SDS011;4268;52.506;13.462;2022-11-14T05:00:20;60.97;;;41.60;;
8462;SDS011;4268;52.506;13.462;2022-11-14T05:02:46;61.27;;;42.03;;
8462;SDS011;4268;52.506;13.462;2022-11-14T05:05:12;57.63;;;39.87;;
8462;SDS011;4268;52.506;13.462;2022-11-14T05:07:37;60.53;;;41.43;;
8462;SDS011;4268;52.506;13.462;2022-11-14T05:10:03;60.63;;;42.87;;
8462;SDS011;4268;52.506;13.462;2022-11-14T05:12:29;66.20;;;44.30;;
8462;SDS011;4268;52.506;13.462;2022-11-14T05:14:54;60.43;;;42.23;;
8462;SDS011;4268;52.506;13.462;2022-11-14T05:17:21;54.97;;;40.03;;
8462;SDS011;4268;52.506;13.462;2022-11-14T05:19:46;63.27;;;42.73;;
8462;SDS011;4268;52.506;13.462;2022-11-14T05:22:12;58.67;;;41.73;;
8462;SDS011;4268;52.506;13.462;2022-11-14T05:24:37;60.43;;;42.73;;
8462;SDS011;4268;52.506;13.462;2022-11-14T05:27:03;58.67;;;41.17;;
8462;SDS011;4268;52.506;13.462;2022-11-14T05:29:28;58.53;;;40.73;;
8462;SDS011;4268;52.506;13.462;2022-11-14T05:31:54;61.53;;;43.63;;
8462;SDS011;4268;52.506;13.462;2022-11-14T05:34:19;66.47;;;43.67;;
8462;SDS011;4268;52.506;13.462;2022-11-14T05:36:45;58.17;;;40.57;;
8462;SDS011;4268;52.506;13.462;2022-11-14T05:39:10;56.87;;;40.27;;
8462;SDS011;4268;52.506;13.462;2022-11-14T05:41:36;61.47;;;40.93;;
8462;SDS011;4268;52.506;13.462;2022-11-14T05:44:02;60.37;;;41.93;;
8462;SDS011;4268;52.506;13.462;2022-11-14T05:46:28;64.33;;;41.43;;
8462;SDS011;4268;52.506;13.462;2022-11-14T05:48:54;58.83;;;41.03;;
8462;SDS011;4268;52.506;13.462;2022-11-14T05:51:19;55.27;;;39.60;;
8462;SDS011;4268;52.506;13.462;2022-11-14T05:53:45;59.17;;;40.43;;
8462;SDS011;4268;52.506;13.462;2022-11-14T05:56:11;61.17;;;41.13;;
8462;SDS011;4268;52.506;13.462;2022-11-14T05:58:37;64.00;;;42.70;;
8462;SDS011;4268;52.506;13.462;2022-11-14T06:01:04;59.43;;;42.37;;
8462;SDS011;4268;52.506;13.462;2022-11-14T06:03:32;60.03;;;40.47;;
8462;SDS011;4268;52.506;13.462;2022-11-14T06:06:00;60.87;;;41.03;;
8462;SDS011;4268;52.506;13.462;2022-11-14T06:08:28;61.20;;;41.13;;
8462;SDS011;4268;52.506;13.462;2022-11-14T06:10:54;60.23;;;39.83;;
8462;SDS011;4268;52.506;13.462;2022-11-14T06:13:20;59.87;;;41.43;;
8462;SDS011;4268;52.506;13.462;2022-11-14T06:15:48;59.50;;;41.80;;
8462;SDS011;4268;52.506;13.462;2022-11-14T06:18:14;58.73;;;40.50;;
8462;SDS011;4268;52.506;13.462;2022-11-14T06:20:39;58.93;;;41.60;;
8462;SDS011;4268;52.506;13.462;2022-11-14T06:23:05;59.13;;;40.53;;
8462;SDS011;4268;52.506;13.462;2022-11-14T06:25:30;60.17;;;40.53;;
8462;SDS011;4268;52.506;13.462;2022-11-14T06:27:57;62.30;;;43.00;;
8462;SDS011;4268;52.506;13.462;2022-11-14T06:30:22;59.97;;;41.03;;
8462;SDS011;4268;52.506;13.462;2022-11-14T06:32:48;58.13;;;42.27;;
8462;SDS011;4268;52.506;13.462;2022-11-14T06:35:13;60.63;;;40.43;;
8462;SDS011;4268;52.506;13.462;2022-11-14T06:37:39;58.73;;;41.93;;
8462;SDS011;4268;52.506;13.462;2022-11-14T06:40:05;66.87;;;43.20;;
8462;SDS011;4268;52.506;13.462;2022-11-14T06:42:31;59.87;;;41.17;;
8462;SDS011;4268;52.506;13.462;2022-11-14T06:44:56;62.20;;;43.23;;
8462;SDS011;4268;52.506;13.462;2022-11-14T06:47:22;61.53;;;41.47;;
8462;SDS011;4268;52.506;13.462;2022-11-14T06:49:47;61.70;;;42.13;;
8462;SDS011;4268;52.506;13.462;2022-11-14T06:52:13;63.30;;;41.87;;
8462;SDS011;4268;52.506;13.462;2022-11-14T06:54:38;60.20;;;41.73;;
8462;SDS011;4268;52.506;13.462;2022-11-14T06:57:04;63.77;;;42.33;;
8462;SDS011;4268;52.506;13.462;2022-11-14T06:59:29;59.73;;;41.20;;
8462;SDS011;4268;52.506;13.462;2022-11-14T07:01:55;60.50;;;42.33;;
8462;SDS011;4268;52.506;13.462;2022-11-14T07:04:20;64.13;;;44.07;;
8462;SDS011;4268;52.506;13.462;2022-11-14T07:06:46;64.03;;;41.60;;
8462;SDS011;4268;52.506;13.462;2022-11-14T07:09:11;62.40;;;42.13;;
8462;SDS011;4268;52.506;13.462;2022-11-14T07:11:37;57.00;;;42.53;;
8462;SDS011;4268;52.506;13.462;2022-11-14T07:14:02;64.27;;;41.67;;
8462;SDS011;4268;52.506;13.462;2022-11-14T07:16:33;66.07;;;41.97;;
8462;SDS011;4268;52.506;13.462;2022-11-14T07:19:00;59.40;;;41.07;;
8462;SDS011;4268;52.506;13.462;2022-11-14T07:21:28;60.97;;;41.63;;
8462;SDS011;4268;52.506;13.462;2022-11-14T07:23:55;60.47;;;40.80;;
8462;SDS011;4268;52.506;13.462;2022-11-14T07:26:20;53.93;;;39.50;;
8462;SDS011;4268;52.506;13.462;2022-11-14T07:28:46;53.43;;;39.07;;
8462;SDS011;4268;52.506;13.462;2022-11-14T07:31:13;55.07;;;40.53;;
8462;SDS011;4268;52.506;13.462;2022-11-14T07:33:40;56.93;;;40.77;;
8462;SDS011;4268;52.506;13.462;2022-11-14T07:36:06;56.37;;;41.00;;
8462;SDS011;4268;52.506;13.462;2022-11-14T07:38:33;53.43;;;37.50;;
8462;SDS011;4268;52.506;13.462;2022-11-14T07:41:01;56.83;;;36.30;;
8462;SDS011;4268;52.506;13.462;2022-11-14T07:43:28;53.70;;;36.80;;
8462;SDS011;4268;52.506;13.462;2022-11-14T07:46:00;53.30;;;37.43;;
8462;SDS011;4268;52.506;13.462;2022-11-14T07:48:46;54.67;;;36.50;;
8462;SDS011;4268;52.506;13.462;2022-11-14T07:51:13;55.13;;;37.77;;
8462;SDS011;4268;52.506;13.462;2022-11-14T07:53:41;52.20;;;37.40;;
8462;SDS011;4268;52.506;13.462;2022-11-14T07:56:07;56.17;;;37.37;;
8462;SDS011;4268;52.506;13.462;2022-11-14T07:58:37;53.53;;;37.43;;
8462;SDS011;4268;52.506;13.462;2022-11-14T08:01:04;48.87;;;35.57;;
8462;SDS011;4268;52.506;13.462;2022-11-14T08:03:31;52.03;;;36.30;;
8462;SDS011;4268;52.506;13.462;2022-11-14T08:06:03;51.03;;;36.20;;
8462;SDS011;4268;52.506;13.462;2022-11-14T08:08:31;54.30;;;36.87;;
8462;SDS011;4268;52.506;13.462;2022-11-14T08:10:57;52.03;;;37.07;;
8462;SDS011;4268;52.506;13.462;2022-11-14T08:13:23;52.90;;;38.63;;
8462;SDS011;4268;52.506;13.462;2022-11-14T08:15:50;49.10;;;34.83;;
8462;SDS011;4268;52.506;13.462;2022-11-14T08:18:15;53.50;;;36.53;;
8462;SDS011;4268;52.506;13.462;2022-11-14T08:20:41;49.03;;;34.20;;
8462;SDS011;4268;52.506;13.462;2022-11-14T08:23:08;47.23;;;31.90;;
8462;SDS011;4268;52.506;13.462;2022-11-14T08:25:34;49.33;;;33.23;;
8462;SDS011;4268;52.506;13.462;2022-11-14T08:28:00;50.00;;;33.33;;
8462;SDS011;4268;52.506;13.462;2022-11-14T08:30:25;52.33;;;34.07;;
8462;SDS011;4268;52.506;13.462;2022-11-14T08:32:51;45.50;;;31.70;;
8462;SDS011;4268;52.506;13.462;2022-11-14T08:35:17;48.67;;;33.97;;
8462;SDS011;4268;52.506;13.462;2022-11-14T08:37:42;46.27;;;31.23;;
8462;SDS011;4268;52.506;13.462;2022-11-14T08:40:08;46.93;;;31.40;;
8462;SDS011;4268;52.506;13.462;2022-11-14T08:42:34;50.03;;;33.23;;
8462;SDS011;4268;52.506;13.462;2022-11-14T08:45:00;47.13;;;32.07;;
8462;SDS011;4268;52.506;13.462;2022-11-14T08:47:25;49.13;;;32.67;;
8462;SDS011;4268;52.506;13.462;2022-11-14T08:49:50;47.33;;;31.97;;
8462;SDS011;4268;52.506;13.462;2022-11-14T08:52:16;48.43;;;32.40;;
8462;SDS011;4268;52.506;13.462;2022-11-14T08:54:41;45.53;;;30.40;;
8462;SDS011;4268;52.506;13.462;2022-11-14T08:57:07;49.17;;;31.33;;
8462;SDS011;4268;52.506;13.462;2022-11-14T08:59:32;45.73;;;31.70;;
8462;SDS011;4268;52.506;13.462;2022-11-14T09:01:58;44.33;;;31.33;;
8462;SDS011;4268;52.506;13.462;2022-11-14T09:04:24;50.67;;;33.43;;
8462;SDS011;4268;52.506;13.462;2022-11-14T09:06:50;47.03;;;31.90;;
8462;SDS011;4268;52.506;13.462;2022-11-14T09:09:16;46.53;;;30.47;;
8462;SDS011;4268;52.506;13.462;2022-11-14T09:11:41;43.40;;;30.97;;
8462;SDS011;4268;52.506;13.462;2022-11-14T09:14:07;44.97;;;31.30;;
8462;SDS011;4268;52.506;13.462;2022-11-14T09:16:33;44.03;;;31.13;;
8462;SDS011;4268;52.506;13.462;2022-11-14T09:18:58;44.50;;;31.67;;
8462;SDS011;4268;52.506;13.462;2022-11-14T09:21:24;45.80;;;32.60;;
8462;SDS011;4268;52.506;13.462;2022-11-14T09:23:49;47.50;;;32.53;;
8462;SDS011;4268;52.506;13.462;2022-11-14T09:26:15;46.90;;;32.47;;
8462;SDS011;4268;52.506;13.462;2022-11-14T09:28:42;46.90;;;34.43;;
8462;SDS011;4268;52.506;13.462;2022-11-14T09:31:09;46.10;;;34.87;;
8462;SDS011;4268;52.506;13.462;2022-11-14T09:33:36;43.50;;;31.80;;
8462;SDS011;4268;52.506;13.462;2022-11-14T09:36:03;40.10;;;30.87;;
8462;SDS011;4268;52.506;13.462;2022-11-14T09:38:31;47.63;;;31.70;;
8462;SDS011;4268;52.506;13.462;2022-11-14T09:43:40;40.97;;;28.53;;
8462;SDS011;4268;52.506;13.462;2022-11-14T09:46:36;37.97;;;27.40;;
8462;SDS011;4268;52.506;13.462;2022-11-14T09:49:09;41.30;;;28.13;;
8462;SDS011;4268;52.506;13.462;2022-11-14T09:51:46;41.10;;;26.77;;
8462;SDS011;4268;52.506;13.462;2022-11-14T09:54:23;38.67;;;26.97;;
8462;SDS011;4268;52.506;13.462;2022-11-14T09:56:50;42.37;;;28.57;;
8462;SDS011;4268;52.506;13.462;2022-11-14T09:59:16;37.23;;;25.93;;
8462;SDS011;4268;52.506;13.462;2022-11-14T10:04:34;42.57;;;26.47;;
8462;SDS011;4268;52.506;13.462;2022-11-14T10:09:50;39.40;;;26.73;;
8462;SDS011;4268;52.506;13.462;2022-11-14T10:15:19;37.17;;;26.07;;
8462;SDS011;4268;52.506;13.462;2022-11-14T10:18:01;36.83;;;25.70;;
8462;SDS011;4268;52.506;13.462;2022-11-14T10:23:53;37.73;;;28.10;;
8462;SDS011;4268;52.506;13.462;2022-11-14T10:26:24;36.37;;;25.80;;
8462;SDS011;4268;52.506;13.462;2022-11-14T10:37:03;35.00;;;25.20;;
8462;SDS011;4268;52.506;13.462;2022-11-14T10:39:43;35.13;;;25.87;;
8462;SDS011;4268;52.506;13.462;2022-11-14T10:42:18;36.87;;;25.70;;
8462;SDS011;4268;52.506;13.462;2022-11-14T10:45:06;32.73;;;25.17;;
8462;SDS011;4268;52.506;13.462;2022-11-14T10:47:45;34.77;;;24.50;;
8462;SDS011;4268;52.506;13.462;2022-11-14T10:50:19;32.13;;;24.60;;
8462;SDS011;4268;52.506;13.462;2022-11-14T10:52:47;35.03;;;26.20;;
8462;SDS011;4268;52.506;13.462;2022-11-14T10:55:18;32.73;;;23.60;;
8462;SDS011;4268;52.506;13.462;2022-11-14T10:57:44;32.43;;;23.77;;
8462;SDS011;4268;52.506;13.462;2022-11-14T11:00:11;33.10;;;25.07;;
8462;SDS011;4268;52.506;13.462;2022-11-14T11:02:46;31.70;;;24.30;;
8462;SDS011;4268;52.506;13.462;2022-11-14T11:05:13;32.63;;;24.60;;
8462;SDS011;4268;52.506;13.462;2022-11-14T11:07:45;32.37;;;24.37;;
8462;SDS011;4268;52.506;13.462;2022-11-14T11:10:30;30.17;;;22.93;;
8462;SDS011;4268;52.506;13.462;2022-11-14T11:13:26;31.83;;;24.63;;
8462;SDS011;4268;52.506;13.462;2022-11-14T11:16:01;29.63;;;23.40;;
8462;SDS011;4268;52.506;13.462;2022-11-14T11:18:29;33.47;;;24.83;;
8462;SDS011;4268;52.506;13.462;2022-11-14T11:21:01;30.43;;;23.30;;
8462;SDS011;4268;52.506;13.462;2022-11-14T11:23:33;32.27;;;25.27;;
8462;SDS011;4268;52.506;13.462;2022-11-14T11:25:59;30.63;;;24.17;;
8462;SDS011;4268;52.506;13.462;2022-11-14T11:28:32;30.70;;;24.30;;
8462;SDS011;4268;52.506;13.462;2022-11-14T11:33:26;29.20;;;23.67;;
8462;SDS011;4268;52.506;13.462;2022-11-14T11:35:58;30.27;;;22.57;;
8462;SDS011;4268;52.506;13.462;2022-11-14T11:38:26;29.73;;;23.13;;
8462;SDS011;4268;52.506;13.462;2022-11-14T11:40:57;28.03;;;21.53;;
8462;SDS011;4268;52.506;13.462;2022-11-14T11:43:45;26.83;;;22.37;;
8462;SDS011;4268;52.506;13.462;2022-11-14T11:46:21;27.33;;;22.67;;
8462;SDS011;4268;52.506;13.462;2022-11-14T11:48:53;29.47;;;23.30;;
8462;SDS011;4268;52.506;13.462;2022-11-14T11:51:26;29.17;;;22.10;;
8462;SDS011;4268;52.506;13.462;2022-11-14T11:53:57;27.17;;;21.83;;
8462;SDS011;4268;52.506;13.462;2022-11-14T11:56:29;39.60;;;29.73;;
8462;SDS011;4268;52.506;13.462;2022-11-14T11:58:58;26.67;;;21.23;;
8462;SDS011;4268;52.506;13.462;2022-11-14T12:01:44;27.40;;;21.90;;
8462;SDS011;4268;52.506;13.462;2022-11-14T12:04:10;26.27;;;21.90;;
8462;SDS011;4268;52.506;13.462;2022-11-14T12:06:44;27.13;;;22.13;;
8462;SDS011;4268;52.506;13.462;2022-11-14T12:09:17;26.40;;;21.37;;
8462;SDS011;4268;52.506;13.462;2022-11-14T12:11:47;22.43;;;19.23;;
8462;SDS011;4268;52.506;13.462;2022-11-14T12:14:34;22.83;;;19.50;;
8462;SDS011;4268;52.506;13.462;2022-11-14T12:17:13;25.43;;;19.80;;
8462;SDS011;4268;52.506;13.462;2022-11-14T12:28:10;21.50;;;18.63;;
8462;SDS011;4268;52.506;13.462;2022-11-14T12:30:57;23.63;;;19.63;;
8462;SDS011;4268;52.506;13.462;2022-11-14T12:33:29;22.80;;;18.60;;
8462;SDS011;4268;52.506;13.462;2022-11-14T12:36:00;19.53;;;17.27;;
8462;SDS011;4268;52.506;13.462;2022-11-14T12:38:31;23.13;;;19.30;;
8462;SDS011;4268;52.506;13.462;2022-11-14T12:41:06;21.33;;;18.47;;
8462;SDS011;4268;52.506;13.462;2022-11-14T12:43:33;21.90;;;18.47;;
8462;SDS011;4268;52.506;13.462;2022-11-14T12:46:02;21.40;;;19.07;;
8462;SDS011;4268;52.506;13.462;2022-11-14T12:48:32;21.07;;;18.70;;
8462;SDS011;4268;52.506;13.462;2022-11-14T12:51:00;22.40;;;19.10;;
8462;SDS011;4268;52.506;13.462;2022-11-14T13:01:26;20.20;;;17.70;;
8462;SDS011;4268;52.506;13.462;2022-11-14T13:04:11;20.30;;;18.10;;
8462;SDS011;4268;52.506;13.462;2022-11-14T13:06:59;19.87;;;17.70;;
8462;SDS011;4268;52.506;13.462;2022-11-14T13:10:01;20.37;;;18.27;;
8462;SDS011;4268;52.506;13.462;2022-11-14T13:12:36;21.33;;;18.50;;
8462;SDS011;4268;52.506;13.462;2022-11-14T13:15:28;19.83;;;17.60;;
8462;SDS011;4268;52.506;13.462;2022-11-14T13:18:19;20.00;;;17.80;;
8462;SDS011;4268;52.506;13.462;2022-11-14T13:21:06;21.20;;;18.13;;
8462;SDS011;4268;52.506;13.462;2022-11-14T13:23:59;19.50;;;17.30;;
8462;SDS011;4268;52.506;13.462;2022-11-14T13:26:34;19.23;;;17.33;;
8462;SDS011;4268;52.506;13.462;2022-11-14T13:29:00;19.97;;;17.90;;
8462;SDS011;4268;52.506;13.462;2022-11-14T13:34:00;18.50;;;16.57;;
8462;SDS011;4268;52.506;13.462;2022-11-14T13:39:33;17.57;;;15.77;;
8462;SDS011;4268;52.506;13.462;2022-11-14T13:42:19;17.77;;;15.87;;
8462;SDS011;4268;52.506;13.462;2022-11-14T13:48:11;17.03;;;15.23;;
8462;SDS011;4268;52.506;13.462;2022-11-14T13:50:54;17.40;;;15.60;;
8462;SDS011;4268;52.506;13.462;2022-11-14T13:53:23;18.63;;;15.57;;
8462;SDS011;4268;52.506;13.462;2022-11-14T13:58:32;16.53;;;14.90;;
8462;SDS011;4268;52.506;13.462;2022-11-14T14:06:35;17.07;;;15.20;;
8462;SDS011;4268;52.506;13.462;2022-11-14T14:09:16;17.80;;;15.73;;
8462;SDS011;4268;52.506;13.462;2022-11-14T14:12:15;16.47;;;14.80;;
8462;SDS011;4268;52.506;13.462;2022-11-14T14:15:07;17.40;;;15.47;;
8462;SDS011;4268;52.506;13.462;2022-11-14T14:23:13;17.17;;;15.37;;
8462;SDS011;4268;52.506;13.462;2022-11-14T14:31:00;17.80;;;15.83;;
8462;SDS011;4268;52.506;13.462;2022-11-14T14:33:37;16.97;;;15.23;;
8462;SDS011;4268;52.506;13.462;2022-11-14T14:36:25;17.70;;;15.83;;
8462;SDS011;4268;52.506;13.462;2022-11-14T14:39:14;18.30;;;16.40;;
8462;SDS011;4268;52.506;13.462;2022-11-14T14:41:43;18.30;;;16.33;;
8462;SDS011;4268;52.506;13.462;2022-11-14T14:44:16;17.83;;;15.83;;
8462;SDS011;4268;52.506;13.462;2022-11-14T14:46:45;19.07;;;17.17;;
8462;SDS011;4268;52.506;13.462;2022-11-14T14:49:11;19.63;;;16.60;;
8462;SDS011;4268;52.506;13.462;2022-11-14T14:51:46;17.57;;;15.87;;
8462;SDS011;4268;52.506;13.462;2022-11-14T14:54:19;17.97;;;15.90;;
8462;SDS011;4268;52.506;13.462;2022-11-14T14:56:52;16.97;;;15.17;;
8462;SDS011;4268;52.506;13.462;2022-11-14T14:59:28;18.07;;;16.17;;
8462;SDS011;4268;52.506;13.462;2022-11-14T15:01:54;18.27;;;16.37;;
8462;SDS011;4268;52.506;13.462;2022-11-14T15:04:22;18.63;;;15.90;;
8462;SDS011;4268;52.506;13.462;2022-11-14T15:06:51;17.17;;;15.47;;
8462;SDS011;4268;52.506;13.462;2022-11-14T15:09:26;18.00;;;16.17;;
8462;SDS011;4268;52.506;13.462;2022-11-14T15:11:56;18.37;;;16.57;;
8462;SDS011;4268;52.506;13.462;2022-11-14T15:14:31;19.97;;;17.80;;
8462;SDS011;4268;52.506;13.462;2022-11-14T15:16:59;20.67;;;18.47;;
8462;SDS011;4268;52.506;13.462;2022-11-14T15:19:33;21.07;;;18.80;;
8462;SDS011;4268;52.506;13.462;2022-11-14T15:22:17;20.70;;;18.53;;
8462;SDS011;4268;52.506;13.462;2022-11-14T15:27:54;20.77;;;18.67;;
8462;SDS011;4268;52.506;13.462;2022-11-14T15:30:26;20.97;;;18.77;;
8462;SDS011;4268;52.506;13.462;2022-11-14T15:32:59;23.27;;;20.97;;
8462;SDS011;4268;52.506;13.462;2022-11-14T15:35:27;20.77;;;18.57;;
8462;SDS011;4268;52.506;13.462;2022-11-14T15:38:16;20.93;;;18.77;;
8462;SDS011;4268;52.506;13.462;2022-11-14T15:40:46;21.13;;;18.93;;
8462;SDS011;4268;52.506;13.462;2022-11-14T15:43:33;21.83;;;19.43;;
8462;SDS011;4268;52.506;13.462;2022-11-14T15:46:28;20.43;;;18.23;;
8462;SDS011;4268;52.506;13.462;2022-11-14T15:49:09;21.63;;;19.33;;
8462;SDS011;4268;52.506;13.462;2022-11-14T15:51:44;21.53;;;18.97;;
8462;SDS011;4268;52.506;13.462;2022-11-14T15:54:31;21.10;;;18.83;;
8462;SDS011;4268;52.506;13.462;2022-11-14T15:56:59;20.27;;;18.20;;